sensor_id;sensor_type;location;lat;lon;timestamp;P1;durP1;ratioP1;P2;durP2;ratioP2
3781;SDS011;6881;49.962;7.718;2023-05-28T00:00:44;10.40;;;6.60;;
3781;SDS011;6881;49.962;7.718;2023-05-28T00:03:09;12.13;;;7.33;;
3781;SDS011;6881;49.962;7.718;2023-05-28T00:05:35;13.20;;;7.57;;
3781;SDS011;6881;49.962;7.718;2023-05-28T00:08:00;11.43;;;7.00;;
3781;SDS011;6881;49.962;7.718;2023-05-28T00:10:26;9.23;;;7.10;;
3781;SDS011;6881;49.962;7.718;2023-05-28T00:12:52;11.70;;;6.77;;
3781;SDS011;6881;49.962;7.718;2023-05-28T00:15:18;6.73;;;5.90;;
3781;SDS011;6881;49.962;7.718;2023-05-28T00:17:43;7.67;;;5.87;;
3781;SDS011;6881;49.962;7.718;2023-05-28T00:20:09;8.23;;;5.80;;
3781;SDS011;6881;49.962;7.718;2023-05-28T00:22:35;10.60;;;5.80;;
3781;SDS011;6881;49.962;7.718;2023-05-28T00:25:00;7.10;;;5.50;;
3781;SDS011;6881;49.962;7.718;2023-05-28T00:27:26;5.60;;;5.03;;
3781;SDS011;6881;49.962;7.718;2023-05-28T00:29:52;7.10;;;5.10;;
3781;SDS011;6881;49.962;7.718;2023-05-28T00:32:17;8.37;;;6.27;;
3781;SDS011;6881;49.962;7.718;2023-05-28T00:34:42;7.93;;;5.30;;
3781;SDS011;6881;49.962;7.718;2023-05-28T00:37:08;11.50;;;6.20;;
3781;SDS011;6881;49.962;7.718;2023-05-28T00:39:33;7.83;;;5.10;;
3781;SDS011;6881;49.962;7.718;2023-05-28T00:42:02;8.40;;;5.00;;
3781;SDS011;6881;49.962;7.718;2023-05-28T00:44:28;6.70;;;4.70;;
3781;SDS011;6881;49.962;7.718;2023-05-28T00:46:57;6.50;;;4.73;;
3781;SDS011;6881;49.962;7.718;2023-05-28T00:49:23;7.33;;;6.07;;
3781;SDS011;6881;49.962;7.718;2023-05-28T00:51:48;7.40;;;5.60;;
3781;SDS011;6881;49.962;7.718;2023-05-28T00:54:14;8.70;;;6.17;;
3781;SDS011;6881;49.962;7.718;2023-05-28T00:56:40;9.53;;;6.23;;
3781;SDS011;6881;49.962;7.718;2023-05-28T00:59:06;10.67;;;6.30;;
3781;SDS011;6881;49.962;7.718;2023-05-28T01:01:32;7.00;;;5.73;;
3781;SDS011;6881;49.962;7.718;2023-05-28T01:03:58;7.57;;;6.00;;
3781;SDS011;6881;49.962;7.718;2023-05-28T01:06:25;8.10;;;5.63;;
3781;SDS011;6881;49.962;7.718;2023-05-28T01:08:53;14.13;;;5.97;;
3781;SDS011;6881;49.962;7.718;2023-05-28T01:11:19;7.20;;;5.80;;
3781;SDS011;6881;49.962;7.718;2023-05-28T01:13:45;7.57;;;5.87;;
3781;SDS011;6881;49.962;7.718;2023-05-28T01:16:11;11.73;;;5.60;;
3781;SDS011;6881;49.962;7.718;2023-05-28T01:18:37;8.83;;;5.37;;
3781;SDS011;6881;49.962;7.718;2023-05-28T01:21:04;11.30;;;4.90;;
3781;SDS011;6881;49.962;7.718;2023-05-28T01:23:35;6.17;;;4.43;;
3781;SDS011;6881;49.962;7.718;2023-05-28T01:26:11;7.47;;;4.30;;
3781;SDS011;6881;49.962;7.718;2023-05-28T01:28:37;7.77;;;4.40;;
3781;SDS011;6881;49.962;7.718;2023-05-28T01:31:09;8.40;;;5.20;;
3781;SDS011;6881;49.962;7.718;2023-05-28T01:33:35;11.30;;;5.83;;
3781;SDS011;6881;49.962;7.718;2023-05-28T01:36:00;8.20;;;4.83;;
3781;SDS011;6881;49.962;7.718;2023-05-28T01:38:26;5.37;;;4.87;;
3781;SDS011;6881;49.962;7.718;2023-05-28T01:40:52;7.70;;;4.27;;
3781;SDS011;6881;49.962;7.718;2023-05-28T01:43:18;9.43;;;4.37;;
3781;SDS011;6881;49.962;7.718;2023-05-28T01:45:44;7.20;;;4.87;;
3781;SDS011;6881;49.962;7.718;2023-05-28T01:48:09;7.00;;;4.30;;
3781;SDS011;6881;49.962;7.718;2023-05-28T01:50:35;8.30;;;4.80;;
3781;SDS011;6881;49.962;7.718;2023-05-28T01:53:00;8.90;;;4.57;;
3781;SDS011;6881;49.962;7.718;2023-05-28T01:55:26;7.00;;;5.23;;
3781;SDS011;6881;49.962;7.718;2023-05-28T01:57:51;6.77;;;3.93;;
3781;SDS011;6881;49.962;7.718;2023-05-28T02:00:16;9.10;;;5.00;;
3781;SDS011;6881;49.962;7.718;2023-05-28T02:02:42;8.17;;;4.13;;
3781;SDS011;6881;49.962;7.718;2023-05-28T02:05:08;7.00;;;4.67;;
3781;SDS011;6881;49.962;7.718;2023-05-28T02:07:34;8.07;;;4.20;;
3781;SDS011;6881;49.962;7.718;2023-05-28T02:09:59;12.40;;;4.83;;
3781;SDS011;6881;49.962;7.718;2023-05-28T02:12:25;5.63;;;3.70;;
3781;SDS011;6881;49.962;7.718;2023-05-28T02:14:51;10.87;;;4.13;;
3781;SDS011;6881;49.962;7.718;2023-05-28T02:17:16;6.07;;;4.00;;
3781;SDS011;6881;49.962;7.718;2023-05-28T02:19:42;7.30;;;5.03;;
3781;SDS011;6881;49.962;7.718;2023-05-28T02:22:08;6.67;;;4.60;;
3781;SDS011;6881;49.962;7.718;2023-05-28T02:24:37;6.60;;;4.67;;
3781;SDS011;6881;49.962;7.718;2023-05-28T02:27:03;7.73;;;4.47;;
3781;SDS011;6881;49.962;7.718;2023-05-28T02:29:29;9.60;;;4.13;;
3781;SDS011;6881;49.962;7.718;2023-05-28T02:31:55;8.97;;;4.90;;
3781;SDS011;6881;49.962;7.718;2023-05-28T02:34:20;6.20;;;4.13;;
3781;SDS011;6881;49.962;7.718;2023-05-28T02:36:46;5.77;;;4.40;;
3781;SDS011;6881;49.962;7.718;2023-05-28T02:39:11;7.47;;;4.30;;
3781;SDS011;6881;49.962;7.718;2023-05-28T02:41:36;7.83;;;3.97;;
3781;SDS011;6881;49.962;7.718;2023-05-28T02:44:02;7.13;;;4.07;;
3781;SDS011;6881;49.962;7.718;2023-05-28T02:46:27;5.73;;;3.90;;
3781;SDS011;6881;49.962;7.718;2023-05-28T02:48:52;6.43;;;4.23;;
3781;SDS011;6881;49.962;7.718;2023-05-28T02:51:18;9.37;;;3.53;;
3781;SDS011;6881;49.962;7.718;2023-05-28T02:53:43;5.77;;;3.93;;
3781;SDS011;6881;49.962;7.718;2023-05-28T02:56:09;6.63;;;3.83;;
3781;SDS011;6881;49.962;7.718;2023-05-28T02:58:34;4.53;;;4.13;;
3781;SDS011;6881;49.962;7.718;2023-05-28T03:01:01;11.50;;;4.67;;
3781;SDS011;6881;49.962;7.718;2023-05-28T03:03:27;6.30;;;4.20;;
3781;SDS011;6881;49.962;7.718;2023-05-28T03:05:53;6.13;;;4.10;;
3781;SDS011;6881;49.962;7.718;2023-05-28T03:08:18;5.20;;;3.90;;
3781;SDS011;6881;49.962;7.718;2023-05-28T03:10:43;8.73;;;4.10;;
3781;SDS011;6881;49.962;7.718;2023-05-28T03:13:09;4.43;;;3.40;;
3781;SDS011;6881;49.962;7.718;2023-05-28T03:15:34;6.90;;;4.03;;
3781;SDS011;6881;49.962;7.718;2023-05-28T03:18:00;5.40;;;4.50;;
3781;SDS011;6881;49.962;7.718;2023-05-28T03:20:25;11.37;;;4.27;;
3781;SDS011;6881;49.962;7.718;2023-05-28T03:22:54;6.87;;;4.70;;
3781;SDS011;6881;49.962;7.718;2023-05-28T03:25:21;8.63;;;4.37;;
3781;SDS011;6881;49.962;7.718;2023-05-28T03:27:46;7.43;;;3.70;;
3781;SDS011;6881;49.962;7.718;2023-05-28T03:30:12;5.33;;;4.10;;
3781;SDS011;6881;49.962;7.718;2023-05-28T03:32:39;9.17;;;5.37;;
3781;SDS011;6881;49.962;7.718;2023-05-28T03:35:05;7.07;;;4.13;;
3781;SDS011;6881;49.962;7.718;2023-05-28T03:37:31;7.57;;;5.03;;
3781;SDS011;6881;49.962;7.718;2023-05-28T03:39:56;6.10;;;4.67;;
3781;SDS011;6881;49.962;7.718;2023-05-28T03:42:21;6.40;;;3.60;;
3781;SDS011;6881;49.962;7.718;2023-05-28T03:44:47;5.20;;;3.70;;
3781;SDS011;6881;49.962;7.718;2023-05-28T03:47:12;7.33;;;4.53;;
3781;SDS011;6881;49.962;7.718;2023-05-28T03:49:37;7.73;;;4.67;;
3781;SDS011;6881;49.962;7.718;2023-05-28T03:52:03;8.43;;;4.93;;
3781;SDS011;6881;49.962;7.718;2023-05-28T03:54:29;5.80;;;3.70;;
3781;SDS011;6881;49.962;7.718;2023-05-28T03:56:55;6.63;;;4.10;;
3781;SDS011;6881;49.962;7.718;2023-05-28T03:59:20;7.03;;;4.20;;
3781;SDS011;6881;49.962;7.718;2023-05-28T04:01:46;9.60;;;4.50;;
3781;SDS011;6881;49.962;7.718;2023-05-28T04:04:12;8.50;;;4.47;;
3781;SDS011;6881;49.962;7.718;2023-05-28T04:06:37;9.10;;;4.50;;
3781;SDS011;6881;49.962;7.718;2023-05-28T04:09:02;6.67;;;3.93;;
3781;SDS011;6881;49.962;7.718;2023-05-28T04:11:28;6.07;;;4.10;;
3781;SDS011;6881;49.962;7.718;2023-05-28T04:13:55;10.30;;;5.10;;
3781;SDS011;6881;49.962;7.718;2023-05-28T04:16:20;7.07;;;4.57;;
3781;SDS011;6881;49.962;7.718;2023-05-28T04:18:48;6.27;;;3.97;;
3781;SDS011;6881;49.962;7.718;2023-05-28T04:21:13;5.93;;;3.60;;
3781;SDS011;6881;49.962;7.718;2023-05-28T04:23:39;9.40;;;3.60;;
3781;SDS011;6881;49.962;7.718;2023-05-28T04:26:04;7.23;;;4.13;;
3781;SDS011;6881;49.962;7.718;2023-05-28T04:28:33;7.70;;;4.30;;
3781;SDS011;6881;49.962;7.718;2023-05-28T04:30:58;11.67;;;4.33;;
3781;SDS011;6881;49.962;7.718;2023-05-28T04:33:26;8.30;;;4.50;;
3781;SDS011;6881;49.962;7.718;2023-05-28T04:35:53;6.03;;;4.30;;
3781;SDS011;6881;49.962;7.718;2023-05-28T04:38:23;5.80;;;3.70;;
3781;SDS011;6881;49.962;7.718;2023-05-28T04:40:49;5.50;;;3.93;;
3781;SDS011;6881;49.962;7.718;2023-05-28T04:43:14;7.73;;;4.60;;
3781;SDS011;6881;49.962;7.718;2023-05-28T04:45:41;6.10;;;4.13;;
3781;SDS011;6881;49.962;7.718;2023-05-28T04:48:06;5.07;;;3.80;;
3781;SDS011;6881;49.962;7.718;2023-05-28T04:50:32;5.40;;;4.30;;
3781;SDS011;6881;49.962;7.718;2023-05-28T04:52:58;4.77;;;4.37;;
3781;SDS011;6881;49.962;7.718;2023-05-28T04:55:23;7.00;;;4.10;;
3781;SDS011;6881;49.962;7.718;2023-05-28T04:57:49;10.47;;;5.77;;
3781;SDS011;6881;49.962;7.718;2023-05-28T05:00:14;7.43;;;3.87;;
3781;SDS011;6881;49.962;7.718;2023-05-28T05:02:40;9.90;;;4.53;;
3781;SDS011;6881;49.962;7.718;2023-05-28T05:05:08;4.50;;;3.60;;
3781;SDS011;6881;49.962;7.718;2023-05-28T05:07:35;8.10;;;3.87;;
3781;SDS011;6881;49.962;7.718;2023-05-28T05:10:01;9.03;;;4.00;;
3781;SDS011;6881;49.962;7.718;2023-05-28T05:12:27;6.80;;;4.23;;
3781;SDS011;6881;49.962;7.718;2023-05-28T05:14:53;7.03;;;4.70;;
3781;SDS011;6881;49.962;7.718;2023-05-28T05:17:18;4.97;;;4.07;;
3781;SDS011;6881;49.962;7.718;2023-05-28T05:19:43;3.80;;;3.27;;
3781;SDS011;6881;49.962;7.718;2023-05-28T05:22:09;5.10;;;4.07;;
3781;SDS011;6881;49.962;7.718;2023-05-28T05:24:34;5.33;;;4.17;;
3781;SDS011;6881;49.962;7.718;2023-05-28T05:26:59;4.57;;;3.90;;
3781;SDS011;6881;49.962;7.718;2023-05-28T05:29:25;5.50;;;3.90;;
3781;SDS011;6881;49.962;7.718;2023-05-28T05:31:50;5.57;;;4.13;;
3781;SDS011;6881;49.962;7.718;2023-05-28T05:34:15;9.00;;;3.77;;
3781;SDS011;6881;49.962;7.718;2023-05-28T05:36:41;6.17;;;4.33;;
3781;SDS011;6881;49.962;7.718;2023-05-28T05:39:06;6.43;;;4.40;;
3781;SDS011;6881;49.962;7.718;2023-05-28T05:41:31;5.90;;;4.00;;
3781;SDS011;6881;49.962;7.718;2023-05-28T05:43:57;4.67;;;4.17;;
3781;SDS011;6881;49.962;7.718;2023-05-28T05:46:22;4.60;;;3.93;;
3781;SDS011;6881;49.962;7.718;2023-05-28T05:48:47;5.63;;;4.43;;
3781;SDS011;6881;49.962;7.718;2023-05-28T05:51:13;5.37;;;3.57;;
3781;SDS011;6881;49.962;7.718;2023-05-28T05:53:43;7.13;;;4.57;;
3781;SDS011;6881;49.962;7.718;2023-05-28T05:56:09;6.30;;;4.00;;
3781;SDS011;6881;49.962;7.718;2023-05-28T05:58:34;6.50;;;4.20;;
3781;SDS011;6881;49.962;7.718;2023-05-28T06:01:00;7.07;;;4.03;;
3781;SDS011;6881;49.962;7.718;2023-05-28T06:03:26;5.60;;;4.40;;
3781;SDS011;6881;49.962;7.718;2023-05-28T06:05:52;4.97;;;4.20;;
3781;SDS011;6881;49.962;7.718;2023-05-28T06:08:18;6.10;;;4.10;;
3781;SDS011;6881;49.962;7.718;2023-05-28T06:10:43;4.87;;;4.37;;
3781;SDS011;6881;49.962;7.718;2023-05-28T06:13:08;5.20;;;4.07;;
3781;SDS011;6881;49.962;7.718;2023-05-28T06:15:34;5.90;;;3.90;;
3781;SDS011;6881;49.962;7.718;2023-05-28T06:18:00;7.43;;;4.70;;
3781;SDS011;6881;49.962;7.718;2023-05-28T06:20:26;9.50;;;4.77;;
3781;SDS011;6881;49.962;7.718;2023-05-28T06:22:52;6.27;;;5.23;;
3781;SDS011;6881;49.962;7.718;2023-05-28T06:25:17;6.50;;;4.07;;
3781;SDS011;6881;49.962;7.718;2023-05-28T06:27:43;16.57;;;5.10;;
3781;SDS011;6881;49.962;7.718;2023-05-28T06:30:08;5.50;;;4.03;;
3781;SDS011;6881;49.962;7.718;2023-05-28T06:32:35;6.60;;;4.30;;
3781;SDS011;6881;49.962;7.718;2023-05-28T06:35:00;8.37;;;4.30;;
3781;SDS011;6881;49.962;7.718;2023-05-28T06:37:26;5.20;;;4.47;;
3781;SDS011;6881;49.962;7.718;2023-05-28T06:39:52;4.00;;;3.37;;
3781;SDS011;6881;49.962;7.718;2023-05-28T06:42:18;5.50;;;4.47;;
3781;SDS011;6881;49.962;7.718;2023-05-28T06:44:43;4.63;;;3.70;;
3781;SDS011;6881;49.962;7.718;2023-05-28T06:47:08;4.70;;;3.80;;
3781;SDS011;6881;49.962;7.718;2023-05-28T06:49:34;6.90;;;4.57;;
3781;SDS011;6881;49.962;7.718;2023-05-28T06:52:00;7.20;;;5.10;;
3781;SDS011;6881;49.962;7.718;2023-05-28T06:54:25;7.20;;;4.20;;
3781;SDS011;6881;49.962;7.718;2023-05-28T06:56:51;5.67;;;4.30;;
3781;SDS011;6881;49.962;7.718;2023-05-28T06:59:16;6.70;;;4.60;;
3781;SDS011;6881;49.962;7.718;2023-05-28T07:01:41;8.37;;;4.20;;
3781;SDS011;6881;49.962;7.718;2023-05-28T07:04:07;4.87;;;4.20;;
3781;SDS011;6881;49.962;7.718;2023-05-28T07:06:32;5.43;;;3.80;;
3781;SDS011;6881;49.962;7.718;2023-05-28T07:08:59;7.30;;;4.87;;
3781;SDS011;6881;49.962;7.718;2023-05-28T07:11:25;7.13;;;4.03;;
3781;SDS011;6881;49.962;7.718;2023-05-28T07:13:51;4.20;;;3.80;;
3781;SDS011;6881;49.962;7.718;2023-05-28T07:16:18;6.90;;;4.67;;
3781;SDS011;6881;49.962;7.718;2023-05-28T07:18:44;7.60;;;4.40;;
3781;SDS011;6881;49.962;7.718;2023-05-28T07:21:09;7.30;;;4.10;;
3781;SDS011;6881;49.962;7.718;2023-05-28T07:23:35;4.87;;;4.27;;
3781;SDS011;6881;49.962;7.718;2023-05-28T07:26:01;7.40;;;4.60;;
3781;SDS011;6881;49.962;7.718;2023-05-28T07:28:26;6.53;;;4.17;;
3781;SDS011;6881;49.962;7.718;2023-05-28T07:30:51;5.83;;;4.57;;
3781;SDS011;6881;49.962;7.718;2023-05-28T07:33:17;6.67;;;4.23;;
3781;SDS011;6881;49.962;7.718;2023-05-28T07:35:42;5.80;;;4.80;;
3781;SDS011;6881;49.962;7.718;2023-05-28T07:38:07;6.67;;;4.80;;
3781;SDS011;6881;49.962;7.718;2023-05-28T07:40:35;7.13;;;3.40;;
3781;SDS011;6881;49.962;7.718;2023-05-28T07:43:01;6.00;;;3.90;;
3781;SDS011;6881;49.962;7.718;2023-05-28T07:45:26;7.40;;;3.87;;
3781;SDS011;6881;49.962;7.718;2023-05-28T07:47:51;4.67;;;4.17;;
3781;SDS011;6881;49.962;7.718;2023-05-28T07:50:17;6.00;;;4.17;;
3781;SDS011;6881;49.962;7.718;2023-05-28T07:52:43;7.70;;;4.20;;
3781;SDS011;6881;49.962;7.718;2023-05-28T07:55:09;6.10;;;3.63;;
3781;SDS011;6881;49.962;7.718;2023-05-28T07:57:34;7.87;;;4.50;;
3781;SDS011;6881;49.962;7.718;2023-05-28T07:59:59;5.80;;;4.37;;
3781;SDS011;6881;49.962;7.718;2023-05-28T08:02:25;6.30;;;4.17;;
3781;SDS011;6881;49.962;7.718;2023-05-28T08:04:51;6.13;;;3.97;;
3781;SDS011;6881;49.962;7.718;2023-05-28T08:07:16;7.23;;;5.40;;
3781;SDS011;6881;49.962;7.718;2023-05-28T08:09:41;5.17;;;4.50;;
3781;SDS011;6881;49.962;7.718;2023-05-28T08:12:07;4.20;;;3.80;;
3781;SDS011;6881;49.962;7.718;2023-05-28T08:14:33;4.90;;;3.70;;
3781;SDS011;6881;49.962;7.718;2023-05-28T08:16:59;6.93;;;4.60;;
3781;SDS011;6881;49.962;7.718;2023-05-28T08:19:25;5.17;;;4.20;;
3781;SDS011;6881;49.962;7.718;2023-05-28T08:21:51;6.67;;;4.90;;
3781;SDS011;6881;49.962;7.718;2023-05-28T08:24:16;8.10;;;4.33;;
3781;SDS011;6881;49.962;7.718;2023-05-28T08:26:43;5.67;;;4.83;;
3781;SDS011;6881;49.962;7.718;2023-05-28T08:29:08;6.40;;;4.50;;
3781;SDS011;6881;49.962;7.718;2023-05-28T08:31:34;5.60;;;4.50;;
3781;SDS011;6881;49.962;7.718;2023-05-28T08:33:59;4.77;;;4.27;;
3781;SDS011;6881;49.962;7.718;2023-05-28T08:36:24;8.00;;;4.97;;
3781;SDS011;6881;49.962;7.718;2023-05-28T08:38:50;5.83;;;4.90;;
3781;SDS011;6881;49.962;7.718;2023-05-28T08:41:15;6.67;;;4.37;;
3781;SDS011;6881;49.962;7.718;2023-05-28T08:43:41;5.20;;;4.00;;
3781;SDS011;6881;49.962;7.718;2023-05-28T08:46:07;5.00;;;4.40;;
3781;SDS011;6881;49.962;7.718;2023-05-28T08:48:33;4.63;;;4.10;;
3781;SDS011;6881;49.962;7.718;2023-05-28T08:50:59;7.67;;;4.90;;
3781;SDS011;6881;49.962;7.718;2023-05-28T08:53:25;5.40;;;4.50;;
3781;SDS011;6881;49.962;7.718;2023-05-28T08:55:55;7.60;;;5.23;;
3781;SDS011;6881;49.962;7.718;2023-05-28T08:58:21;4.17;;;3.80;;
3781;SDS011;6881;49.962;7.718;2023-05-28T09:00:46;6.97;;;4.60;;
3781;SDS011;6881;49.962;7.718;2023-05-28T09:03:16;4.80;;;4.30;;
3781;SDS011;6881;49.962;7.718;2023-05-28T09:05:41;6.23;;;4.40;;
3781;SDS011;6881;49.962;7.718;2023-05-28T09:08:07;6.20;;;4.27;;
3781;SDS011;6881;49.962;7.718;2023-05-28T09:10:35;7.50;;;4.90;;
3781;SDS011;6881;49.962;7.718;2023-05-28T09:13:01;5.90;;;5.40;;
3781;SDS011;6881;49.962;7.718;2023-05-28T09:15:27;4.80;;;4.27;;
3781;SDS011;6881;49.962;7.718;2023-05-28T09:17:53;5.83;;;4.43;;
3781;SDS011;6881;49.962;7.718;2023-05-28T09:20:18;5.57;;;4.50;;
3781;SDS011;6881;49.962;7.718;2023-05-28T09:22:44;6.53;;;4.80;;
3781;SDS011;6881;49.962;7.718;2023-05-28T09:25:09;4.73;;;4.23;;
3781;SDS011;6881;49.962;7.718;2023-05-28T09:27:35;5.73;;;4.57;;
3781;SDS011;6881;49.962;7.718;2023-05-28T09:30:05;5.17;;;4.30;;
3781;SDS011;6881;49.962;7.718;2023-05-28T09:32:33;6.30;;;5.67;;
3781;SDS011;6881;49.962;7.718;2023-05-28T09:34:59;7.50;;;4.77;;
3781;SDS011;6881;49.962;7.718;2023-05-28T09:37:27;5.33;;;4.63;;
3781;SDS011;6881;49.962;7.718;2023-05-28T09:39:59;6.50;;;3.93;;
3781;SDS011;6881;49.962;7.718;2023-05-28T09:42:47;6.97;;;4.40;;
3781;SDS011;6881;49.962;7.718;2023-05-28T09:45:21;8.00;;;4.40;;
3781;SDS011;6881;49.962;7.718;2023-05-28T09:47:50;7.30;;;5.03;;
3781;SDS011;6881;49.962;7.718;2023-05-28T09:50:16;4.50;;;4.10;;
3781;SDS011;6881;49.962;7.718;2023-05-28T09:52:42;8.73;;;5.57;;
3781;SDS011;6881;49.962;7.718;2023-05-28T09:55:15;5.47;;;4.20;;
3781;SDS011;6881;49.962;7.718;2023-05-28T09:57:45;8.07;;;4.53;;
3781;SDS011;6881;49.962;7.718;2023-05-28T10:00:13;7.30;;;5.00;;
3781;SDS011;6881;49.962;7.718;2023-05-28T10:05:20;7.47;;;5.60;;
3781;SDS011;6881;49.962;7.718;2023-05-28T10:07:48;5.53;;;5.00;;
3781;SDS011;6881;49.962;7.718;2023-05-28T10:10:14;7.30;;;5.57;;
3781;SDS011;6881;49.962;7.718;2023-05-28T10:12:40;7.13;;;5.57;;
3781;SDS011;6881;49.962;7.718;2023-05-28T10:15:07;6.00;;;4.80;;
3781;SDS011;6881;49.962;7.718;2023-05-28T10:17:33;6.50;;;4.87;;
3781;SDS011;6881;49.962;7.718;2023-05-28T10:20:00;5.90;;;4.97;;
3781;SDS011;6881;49.962;7.718;2023-05-28T10:22:25;5.63;;;4.83;;
3781;SDS011;6881;49.962;7.718;2023-05-28T10:24:50;5.03;;;4.53;;
3781;SDS011;6881;49.962;7.718;2023-05-28T10:27:16;6.93;;;5.17;;
3781;SDS011;6881;49.962;7.718;2023-05-28T10:29:44;6.97;;;5.10;;
3781;SDS011;6881;49.962;7.718;2023-05-28T10:32:16;6.40;;;5.67;;
3781;SDS011;6881;49.962;7.718;2023-05-28T10:34:42;7.70;;;5.10;;
3781;SDS011;6881;49.962;7.718;2023-05-28T10:37:08;6.53;;;5.07;;
3781;SDS011;6881;49.962;7.718;2023-05-28T10:39:37;6.03;;;5.43;;
3781;SDS011;6881;49.962;7.718;2023-05-28T10:42:10;7.53;;;5.07;;
3781;SDS011;6881;49.962;7.718;2023-05-28T10:47:38;6.83;;;5.10;;
3781;SDS011;6881;49.962;7.718;2023-05-28T10:50:10;6.07;;;4.50;;
3781;SDS011;6881;49.962;7.718;2023-05-28T10:52:36;6.53;;;5.43;;
3781;SDS011;6881;49.962;7.718;2023-05-28T10:55:02;6.00;;;5.40;;
3781;SDS011;6881;49.962;7.718;2023-05-28T11:00:33;5.57;;;4.13;;
3781;SDS011;6881;49.962;7.718;2023-05-28T11:03:05;6.60;;;4.77;;
3781;SDS011;6881;49.962;7.718;2023-05-28T11:05:30;5.97;;;5.37;;
3781;SDS011;6881;49.962;7.718;2023-05-28T11:07:56;6.37;;;5.77;;
3781;SDS011;6881;49.962;7.718;2023-05-28T11:10:22;5.90;;;4.90;;
3781;SDS011;6881;49.962;7.718;2023-05-28T11:12:47;6.40;;;4.77;;
3781;SDS011;6881;49.962;7.718;2023-05-28T11:15:15;5.53;;;5.00;;
3781;SDS011;6881;49.962;7.718;2023-05-28T11:17:44;8.37;;;5.10;;
3781;SDS011;6881;49.962;7.718;2023-05-28T11:20:20;7.60;;;5.60;;
3781;SDS011;6881;49.962;7.718;2023-05-28T11:22:46;6.97;;;4.93;;
3781;SDS011;6881;49.962;7.718;2023-05-28T11:25:11;7.37;;;5.53;;
3781;SDS011;6881;49.962;7.718;2023-05-28T11:27:37;6.53;;;5.93;;
3781;SDS011;6881;49.962;7.718;2023-05-28T11:30:07;6.33;;;5.43;;
3781;SDS011;6881;49.962;7.718;2023-05-28T11:32:34;7.80;;;5.13;;
3781;SDS011;6881;49.962;7.718;2023-05-28T11:34:59;7.73;;;4.93;;
3781;SDS011;6881;49.962;7.718;2023-05-28T11:37:29;5.73;;;4.90;;
3781;SDS011;6881;49.962;7.718;2023-05-28T11:39:58;6.10;;;5.40;;
3781;SDS011;6881;49.962;7.718;2023-05-28T11:42:25;5.73;;;5.20;;
3781;SDS011;6881;49.962;7.718;2023-05-28T11:44:54;10.70;;;5.70;;
3781;SDS011;6881;49.962;7.718;2023-05-28T11:47:20;6.13;;;5.23;;
3781;SDS011;6881;49.962;7.718;2023-05-28T11:49:46;6.13;;;5.30;;
3781;SDS011;6881;49.962;7.718;2023-05-28T11:52:12;6.10;;;5.50;;
3781;SDS011;6881;49.962;7.718;2023-05-28T11:54:39;6.20;;;4.80;;
3781;SDS011;6881;49.962;7.718;2023-05-28T11:57:06;6.90;;;5.70;;
3781;SDS011;6881;49.962;7.718;2023-05-28T11:59:32;7.57;;;5.00;;
3781;SDS011;6881;49.962;7.718;2023-05-28T12:02:09;6.10;;;5.50;;
3781;SDS011;6881;49.962;7.718;2023-05-28T12:04:38;8.17;;;5.00;;
3781;SDS011;6881;49.962;7.718;2023-05-28T12:07:04;5.93;;;5.40;;
3781;SDS011;6881;49.962;7.718;2023-05-28T12:09:30;6.60;;;5.30;;
3781;SDS011;6881;49.962;7.718;2023-05-28T12:12:02;6.30;;;5.37;;
3781;SDS011;6881;49.962;7.718;2023-05-28T12:14:29;7.00;;;5.33;;
3781;SDS011;6881;49.962;7.718;2023-05-28T12:17:00;5.60;;;4.83;;
3781;SDS011;6881;49.962;7.718;2023-05-28T12:19:32;6.93;;;5.97;;
3781;SDS011;6881;49.962;7.718;2023-05-28T12:21:58;6.67;;;5.10;;
3781;SDS011;6881;49.962;7.718;2023-05-28T12:24:25;8.43;;;5.50;;
3781;SDS011;6881;49.962;7.718;2023-05-28T12:26:52;6.40;;;5.23;;
3781;SDS011;6881;49.962;7.718;2023-05-28T12:29:17;6.47;;;5.10;;
3781;SDS011;6881;49.962;7.718;2023-05-28T12:31:42;6.80;;;5.17;;
3781;SDS011;6881;49.962;7.718;2023-05-28T12:34:08;6.83;;;6.10;;
3781;SDS011;6881;49.962;7.718;2023-05-28T12:36:33;5.83;;;5.13;;
3781;SDS011;6881;49.962;7.718;2023-05-28T12:38:59;7.13;;;5.40;;
3781;SDS011;6881;49.962;7.718;2023-05-28T12:41:25;6.30;;;5.70;;
3781;SDS011;6881;49.962;7.718;2023-05-28T12:43:50;5.23;;;4.70;;
3781;SDS011;6881;49.962;7.718;2023-05-28T12:46:15;6.33;;;4.83;;
3781;SDS011;6881;49.962;7.718;2023-05-28T12:48:41;7.43;;;5.37;;
3781;SDS011;6881;49.962;7.718;2023-05-28T12:51:06;7.47;;;5.40;;
3781;SDS011;6881;49.962;7.718;2023-05-28T12:53:32;5.80;;;4.60;;
3781;SDS011;6881;49.962;7.718;2023-05-28T12:55:58;4.77;;;4.33;;
3781;SDS011;6881;49.962;7.718;2023-05-28T12:58:23;4.90;;;4.40;;
3781;SDS011;6881;49.962;7.718;2023-05-28T13:00:49;6.40;;;5.00;;
3781;SDS011;6881;49.962;7.718;2023-05-28T13:03:14;6.00;;;5.07;;
3781;SDS011;6881;49.962;7.718;2023-05-28T13:05:39;6.43;;;5.30;;
3781;SDS011;6881;49.962;7.718;2023-05-28T13:08:05;5.73;;;5.10;;
3781;SDS011;6881;49.962;7.718;2023-05-28T13:10:31;6.30;;;5.03;;
3781;SDS011;6881;49.962;7.718;2023-05-28T13:12:56;5.80;;;5.30;;
3781;SDS011;6881;49.962;7.718;2023-05-28T13:15:22;7.73;;;5.10;;
3781;SDS011;6881;49.962;7.718;2023-05-28T13:17:47;7.07;;;5.13;;
3781;SDS011;6881;49.962;7.718;2023-05-28T13:20:13;5.13;;;4.60;;
3781;SDS011;6881;49.962;7.718;2023-05-28T13:22:39;6.60;;;4.87;;
3781;SDS011;6881;49.962;7.718;2023-05-28T13:25:05;8.33;;;5.07;;
3781;SDS011;6881;49.962;7.718;2023-05-28T13:27:32;6.70;;;5.27;;
3781;SDS011;6881;49.962;7.718;2023-05-28T13:29:57;5.17;;;4.40;;
3781;SDS011;6881;49.962;7.718;2023-05-28T13:32:23;6.00;;;4.40;;
3781;SDS011;6881;49.962;7.718;2023-05-28T13:34:48;5.83;;;5.20;;
3781;SDS011;6881;49.962;7.718;2023-05-28T13:37:14;6.73;;;6.03;;
3781;SDS011;6881;49.962;7.718;2023-05-28T13:39:39;5.70;;;4.80;;
3781;SDS011;6881;49.962;7.718;2023-05-28T13:42:05;6.07;;;5.57;;
3781;SDS011;6881;49.962;7.718;2023-05-28T13:44:32;6.13;;;5.63;;
3781;SDS011;6881;49.962;7.718;2023-05-28T13:46:57;5.63;;;4.57;;
3781;SDS011;6881;49.962;7.718;2023-05-28T13:49:23;5.77;;;5.03;;
3781;SDS011;6881;49.962;7.718;2023-05-28T13:51:48;7.07;;;5.40;;
3781;SDS011;6881;49.962;7.718;2023-05-28T13:54:14;6.57;;;5.43;;
3781;SDS011;6881;49.962;7.718;2023-05-28T13:56:40;7.43;;;5.43;;
3781;SDS011;6881;49.962;7.718;2023-05-28T13:59:05;7.27;;;5.40;;
3781;SDS011;6881;49.962;7.718;2023-05-28T14:01:30;8.53;;;6.00;;
3781;SDS011;6881;49.962;7.718;2023-05-28T14:03:56;6.20;;;5.43;;
3781;SDS011;6881;49.962;7.718;2023-05-28T14:06:21;6.00;;;4.57;;
3781;SDS011;6881;49.962;7.718;2023-05-28T14:08:46;5.87;;;4.90;;
3781;SDS011;6881;49.962;7.718;2023-05-28T14:11:12;9.30;;;6.50;;
3781;SDS011;6881;49.962;7.718;2023-05-28T14:13:37;7.13;;;5.70;;
3781;SDS011;6881;49.962;7.718;2023-05-28T14:16:02;6.53;;;5.67;;
3781;SDS011;6881;49.962;7.718;2023-05-28T14:18:28;7.13;;;5.70;;
3781;SDS011;6881;49.962;7.718;2023-05-28T14:20:55;6.03;;;5.03;;
3781;SDS011;6881;49.962;7.718;2023-05-28T14:23:20;6.20;;;5.60;;
3781;SDS011;6881;49.962;7.718;2023-05-28T14:25:46;9.67;;;5.53;;
3781;SDS011;6881;49.962;7.718;2023-05-28T14:28:11;7.80;;;5.23;;
3781;SDS011;6881;49.962;7.718;2023-05-28T14:30:37;7.77;;;5.57;;
3781;SDS011;6881;49.962;7.718;2023-05-28T14:33:02;5.73;;;5.23;;
3781;SDS011;6881;49.962;7.718;2023-05-28T14:35:28;6.33;;;5.80;;
3781;SDS011;6881;49.962;7.718;2023-05-28T14:37:53;6.03;;;5.33;;
3781;SDS011;6881;49.962;7.718;2023-05-28T14:40:19;6.00;;;5.27;;
3781;SDS011;6881;49.962;7.718;2023-05-28T14:42:44;6.03;;;4.80;;
3781;SDS011;6881;49.962;7.718;2023-05-28T14:45:10;8.23;;;6.23;;
3781;SDS011;6881;49.962;7.718;2023-05-28T14:47:36;6.60;;;5.33;;
3781;SDS011;6881;49.962;7.718;2023-05-28T14:50:02;8.47;;;5.00;;
3781;SDS011;6881;49.962;7.718;2023-05-28T14:52:28;9.00;;;5.63;;
3781;SDS011;6881;49.962;7.718;2023-05-28T14:54:55;5.70;;;5.10;;
3781;SDS011;6881;49.962;7.718;2023-05-28T14:57:21;6.17;;;5.57;;
3781;SDS011;6881;49.962;7.718;2023-05-28T14:59:47;5.90;;;4.87;;
3781;SDS011;6881;49.962;7.718;2023-05-28T15:02:13;8.70;;;5.90;;
3781;SDS011;6881;49.962;7.718;2023-05-28T15:04:40;6.63;;;5.90;;
3781;SDS011;6881;49.962;7.718;2023-05-28T15:07:12;6.50;;;4.73;;
3781;SDS011;6881;49.962;7.718;2023-05-28T15:09:38;5.73;;;5.17;;
3781;SDS011;6881;49.962;7.718;2023-05-28T15:12:04;6.37;;;4.90;;
3781;SDS011;6881;49.962;7.718;2023-05-28T15:14:33;5.83;;;5.13;;
3781;SDS011;6881;49.962;7.718;2023-05-28T15:16:59;7.50;;;5.50;;